Time;durP1;ratioP1;P1;durP2;ratioP2;P2;SDS_P1;SDS_P2;PMS_P1;PMS_P2;Temp;Humidity;BMP_temperature;BMP_pressure;BME280_temperature;BME280_humidity;BME280_pressure;Samples;Min_cycle;Max_cycle;Signal;HPM_P1;HPM_P2
2021/04/12 00:05:20;;;;;;;6.80;4.75;;;;;;;7.50;64.70;95352.47;10530183;28;20505;-78
2021/04/12 00:10:24;;;;;;;9.25;5.72;;;;;;;7.50;64.61;95352.47;10503654;28;20403;-78
2021/04/12 00:15:32;;;;;;;11.23;5.25;;;;;;;7.43;64.73;95349.13;10526996;28;20024;-78
2021/04/12 00:20:58;;;;;;;7.60;4.90;;;;;;;7.48;64.52;95349.22;10526057;28;20093;-78
2021/04/12 00:26:22;;;;;;;6.38;4.90;;;;;;;7.50;64.14;95345.25;10516840;28;20044;-79
2021/04/12 00:31:31;;;;;;;8.63;5.80;;;;;;;7.48;63.54;95351.88;10508874;28;20020;-79
2021/04/12 00:37:10;;;;;;;12.43;5.32;;;;;;;7.49;67.15;95345.50;10508872;28;20487;-79
2021/04/12 00:42:19;;;;;;;12.87;5.30;;;;;;;7.54;63.80;95342.94;10508145;28;20525;-79
2021/04/12 00:47:45;;;;;;;7.93;4.78;;;;;;;7.63;63.33;95341.50;10525429;28;20035;-79
2021/04/12 00:53:03;;;;;;;12.73;5.78;;;;;;;7.81;62.26;95326.28;10524804;28;20134;-79
2021/04/12 00:58:19;;;;;;;9.75;6.28;;;;;;;7.90;62.08;95335.56;10523782;28;20084;-79
2021/04/12 01:03:57;;;;;;;9.48;5.28;;;;;;;7.93;60.50;95336.94;10524543;28;20114;-79
2021/04/12 01:09:19;;;;;;;20.83;6.87;;;;;;;7.88;60.69;95332.28;10524400;28;20436;-79
2021/04/12 01:15:02;;;;;;;9.65;5.63;;;;;;;7.87;60.53;95330.69;10539853;28;20039;-79
2021/04/12 01:20:53;;;;;;;11.23;5.82;;;;;;;7.65;63.03;95325.22;10523517;28;20111;-78
2021/04/12 01:26:02;;;;;;;10.32;5.85;;;;;;;7.44;64.18;95326.72;10523979;28;20035;-78
2021/04/12 01:31:24;;;;;;;11.80;7.03;;;;;;;7.27;67.66;95322.09;10524127;28;20035;-78
2021/04/12 01:36:44;;;;;;;17.10;7.32;;;;;;;7.25;71.59;95334.09;10523176;28;20046;-78
2021/04/12 01:41:53;;;;;;;13.88;6.68;;;;;;;7.26;71.50;95325.81;10523923;28;20568;-79
2021/04/12 01:47:08;;;;;;;14.13;8.32;;;;;;;7.29;70.40;95329.88;10523906;28;20056;-79
2021/04/12 01:52:30;;;;;;;15.00;7.40;;;;;;;7.34;70.29;95325.44;10523226;28;20059;-79
2021/04/12 01:57:37;;;;;;;13.88;8.15;;;;;;;7.51;73.09;95322.81;10523852;28;20033;-79
2021/04/12 02:02:40;;;;;;;19.33;9.88;;;;;;;7.47;73.63;95327.03;10523559;28;20113;-78
2021/04/12 02:08:22;;;;;;;21.50;9.10;;;;;;;7.24;74.84;95330.59;10524582;28;20028;-79
2021/04/12 02:14:00;;;;;;;17.30;9.75;;;;;;;7.24;78.91;95321.75;10505853;28;20032;-78
2021/04/12 02:19:27;;;;;;;19.15;9.88;;;;;;;7.35;75.01;95326.25;10523676;28;20064;-78
2021/04/12 02:24:57;;;;;;;18.25;10.43;;;;;;;7.27;80.74;95326.63;10523887;28;20042;-78
2021/04/12 02:30:26;;;;;;;17.10;9.23;;;;;;;7.15;78.77;95330.16;10483486;28;20047;-79
2021/04/12 02:35:50;;;;;;;15.18;9.40;;;;;;;7.12;79.50;95314.59;10438663;28;20052;-79
2021/04/12 02:41:07;;;;;;;20.83;10.20;;;;;;;7.26;79.07;95304.44;10528328;28;20063;-79
2021/04/12 02:46:26;;;;;;;17.30;9.63;;;;;;;7.28;79.19;95298.84;10565925;28;20020;-79
2021/04/12 02:52:00;;;;;;;16.98;9.13;;;;;;;7.23;81.02;95294.22;10570767;28;20045;-78
2021/04/12 02:57:40;;;;;;;18.20;10.32;;;;;;;7.18;81.71;95302.94;10572231;28;20055;-79
2021/04/12 03:02:40;;;;;;;20.17;11.00;;;;;;;7.20;82.90;95300.03;10569799;28;20094;-79
2021/04/12 03:08:02;;;;;;;18.57;10.83;;;;;;;7.11;83.27;95294.25;10570773;28;20135;-79
2021/04/12 03:13:14;;;;;;;19.88;10.00;;;;;;;7.05;85.58;95297.88;10571045;28;20019;-73
2021/04/12 03:18:27;;;;;;;23.10;10.80;;;;;;;7.00;88.96;95301.28;10572100;28;20131;-79
2021/04/12 03:23:35;;;;;;;17.90;10.07;;;;;;;7.06;84.26;95296.00;10573094;28;20051;-80
2021/04/12 03:28:58;;;;;;;19.50;10.18;;;;;;;7.06;85.77;95294.16;10572421;28;20039;-79
2021/04/12 03:34:12;;;;;;;22.80;10.90;;;;;;;6.93;86.88;95292.53;10552352;28;20471;-78
2021/04/12 03:39:25;;;;;;;22.95;10.48;;;;;;;6.88;87.84;95296.97;10570557;28;20490;-79
2021/04/12 03:44:55;;;;;;;18.55;9.95;;;;;;;6.99;88.08;95304.97;10572422;28;20773;-81
2021/04/12 03:50:22;;;;;;;21.83;9.57;;;;;;;7.01;84.32;95294.84;10590955;27;20052;-80
2021/04/12 03:55:45;;;;;;;22.85;10.27;;;;;;;7.16;83.83;95304.25;10574866;28;20068;-80
2021/04/12 04:00:55;;;;;;;22.63;10.40;;;;;;;7.28;84.77;95302.31;10571045;28;20064;-79
2021/04/12 04:06:17;;;;;;;18.17;10.32;;;;;;;7.35;80.93;95294.16;10570806;28;20045;-80
2021/04/12 04:11:41;;;;;;;18.88;10.50;;;;;;;7.36;83.81;95293.13;10568847;28;20115;-73
2021/04/12 04:17:06;;;;;;;20.00;9.98;;;;;;;7.57;79.75;95286.28;10569916;28;20020;-73
2021/04/12 04:22:37;;;;;;;22.02;10.25;;;;;;;7.62;77.43;95286.38;10528120;28;20432;-73
2021/04/12 04:27:47;;;;;;;21.33;9.82;;;;;;;7.57;77.77;95294.31;10531107;28;20040;-74
2021/04/12 04:32:59;;;;;;;22.10;11.52;;;;;;;7.50;79.42;95294.44;10570272;28;20330;-74
2021/04/12 04:38:17;;;;;;;20.27;12.52;;;;;;;7.45;81.56;95288.19;10569862;28;20042;-75
2021/04/12 04:43:44;;;;;;;21.77;10.57;;;;;;;7.39;83.37;95292.63;10550700;28;20375;-75
2021/04/12 04:49:05;;;;;;;18.63;10.95;;;;;;;7.40;82.14;95293.47;10568669;28;20110;-74
2021/04/12 04:54:09;;;;;;;16.98;9.80;;;;;;;7.46;82.79;95284.47;10566282;28;20047;-74
2021/04/12 04:59:47;;;;;;;26.35;10.05;;;;;;;7.56;79.77;95289.19;10584573;27;20168;-74
2021/04/12 05:05:08;;;;;;;21.50;11.10;;;;;;;7.50;82.88;95294.44;10568143;28;20960;-74
2021/04/12 05:10:39;;;;;;;26.17;14.25;;;;;;;7.72;80.24;95300.97;10546602;28;20043;-74
2021/04/12 05:16:16;;;;;;;23.27;10.43;;;;;;;7.92;79.16;95304.00;10504644;28;20155;-74
2021/04/12 05:21:34;;;;;;;20.23;9.38;;;;;;;7.98;79.86;95299.53;10555670;28;20417;-74
2021/04/12 05:27:12;;;;;;;28.23;10.35;;;;;;;7.90;77.49;95297.25;10564221;28;20028;-74
2021/04/12 05:32:23;;;;;;;27.95;10.35;;;;;;;7.77;86.58;95296.53;10564168;28;20860;-74
2021/04/12 05:38:01;;;;;;;23.42;10.52;;;;;;;7.87;79.70;95290.56;10547033;28;20089;-74
2021/04/12 05:43:22;;;;;;;18.73;10.10;;;;;;;7.99;79.52;95280.56;10564758;28;20070;-74
2021/04/12 05:48:58;;;;;;;18.55;9.45;;;;;;;8.36;70.86;95274.72;10523936;28;20038;-75
2021/04/12 05:54:01;;;;;;;18.33;9.82;;;;;;;8.52;69.39;95274.97;10522145;28;20105;-75
2021/04/12 05:59:39;;;;;;;25.98;8.98;;;;;;;8.82;73.19;95277.25;10504210;28;20398;-75
2021/04/12 06:05:04;;;;;;;30.17;9.25;;;;;;;9.12;76.06;95284.03;10527868;28;20031;-75
2021/04/12 06:10:25;;;;;;;24.05;9.75;;;;;;;9.35;72.46;95287.50;10531153;28;20061;-75
2021/04/12 06:15:34;;;;;;;21.02;9.55;;;;;;;9.58;67.15;95286.41;10530862;28;20063;-75
2021/04/12 06:20:59;;;;;;;29.17;10.60;;;;;;;9.53;61.62;95281.81;10512546;28;20028;-75
2021/04/12 06:26:25;;;;;;;36.78;11.50;;;;;;;9.84;61.75;95276.75;10530758;28;20031;-74
2021/04/12 06:31:50;;;;;;;27.33;10.43;;;;;;;10.00;62.80;95280.34;10530604;28;20172;-74
2021/04/12 06:36:58;;;;;;;18.50;8.63;;;;;;;10.29;59.09;95282.75;10511352;28;20031;-74
2021/04/12 06:42:26;;;;;;;22.70;9.55;;;;;;;10.61;58.77;95281.91;10529484;28;20505;-74
2021/04/12 06:47:54;;;;;;;17.80;9.03;;;;;;;11.13;52.89;95274.09;10529413;28;20032;-74
2021/04/12 06:53:19;;;;;;;22.98;9.93;;;;;;;11.54;51.54;95285.81;10549429;28;20100;-74
2021/04/12 06:58:31;;;;;;;23.30;10.40;;;;;;;11.91;51.30;95274.00;10570182;28;20539;-74
2021/04/12 07:04:09;;;;;;;24.55;10.40;;;;;;;12.25;48.87;95270.84;10569788;28;20020;-74
2021/04/12 07:09:34;;;;;;;23.58;10.63;;;;;;;13.20;46.78;95270.34;10569047;28;20031;-74
2021/04/12 07:15:10;;;;;;;29.95;14.23;;;;;;;15.34;44.16;95254.56;10570628;28;20472;-73
2021/04/12 07:20:32;;;;;;;33.60;14.43;;;;;;;16.68;41.75;95263.41;10572460;28;20028;-74
2021/04/12 07:26:10;;;;;;;27.98;12.75;;;;;;;18.20;38.10;95267.94;10572368;28;20498;-74
2021/04/12 07:31:38;;;;;;;32.50;11.57;;;;;;;19.59;35.84;95244.41;10571019;28;20336;-74
2021/04/12 07:36:41;;;;;;;31.90;10.80;;;;;;;20.69;32.54;95246.22;10570767;28;20133;-74
2021/04/12 07:41:58;;;;;;;25.33;10.32;;;;;;;21.03;32.76;95245.31;10551807;28;20375;-74
2021/04/12 07:47:20;;;;;;;19.97;10.13;;;;;;;20.37;32.36;95234.69;10553340;28;20008;-74
2021/04/12 07:52:55;;;;;;;19.15;9.85;;;;;;;21.39;31.29;95226.78;10570996;28;20059;-75
2021/04/12 07:58:23;;;;;;;16.20;6.97;;;;;;;22.00;29.67;95207.25;10569359;28;20038;-74
2021/04/12 08:03:23;;;;;;;19.38;8.60;;;;;;;23.60;28.27;95201.31;10569473;28;20116;-75
2021/04/12 08:08:57;;;;;;;14.73;8.17;;;;;;;24.49;27.56;95196.00;10569423;28;20089;-75
2021/04/12 08:14:43;;;;;;;16.92;7.70;;;;;;;25.27;26.44;95195.63;10567916;28;20035;-74
2021/04/12 08:20:05;;;;;;;15.85;7.32;;;;;;;26.14;25.68;95185.44;10567328;28;20031;-75
2021/04/12 08:25:17;;;;;;;25.10;8.93;;;;;;;27.03;25.81;95182.75;10566969;28;20019;-75
2021/04/12 08:30:55;;;;;;;16.90;8.43;;;;;;;27.32;25.64;95168.63;10565863;28;20023;-75
2021/04/12 08:36:32;;;;;;;18.58;7.35;;;;;;;26.45;25.23;95169.88;10566006;28;20844;-75
2021/04/12 08:42:10;;;;;;;24.02;8.50;;;;;;;27.26;24.54;95168.91;10565842;28;20039;-75
2021/04/12 08:47:35;;;;;;;23.92;8.55;;;;;;;26.97;25.71;95167.66;10566046;28;20026;-75
2021/04/12 08:52:54;;;;;;;23.45;8.30;;;;;;;27.36;23.91;95152.94;10565850;28;20050;-75
2021/04/12 08:57:54;;;;;;;17.13;7.15;;;;;;;28.05;23.88;95147.19;10565803;28;20531;-75
2021/04/12 09:03:26;;;;;;;28.10;8.07;;;;;;;25.73;26.98;95144.44;10547302;28;20138;-75
2021/04/12 09:08:35;;;;;;;21.55;7.32;;;;;;;26.03;25.96;95138.38;10565165;28;20031;-75
2021/04/12 09:13:45;;;;;;;16.02;6.32;;;;;;;27.83;24.80;95125.97;10565146;28;20105;-75
2021/04/12 09:18:59;;;;;;;14.45;6.70;;;;;;;28.54;22.50;95114.16;10565192;28;20115;-75
2021/04/12 09:24:14;;;;;;;20.30;6.15;;;;;;;27.68;24.22;95114.72;10563542;28;20031;-75
2021/04/12 09:29:29;;;;;;;20.02;6.93;;;;;;;25.70;26.72;95109.38;10563599;28;20111;-75
2021/04/12 09:35:00;;;;;;;12.75;5.93;;;;;;;25.33;26.40;95104.25;10582035;28;20509;-75
2021/04/12 09:40:19;;;;;;;16.67;7.63;;;;;;;24.29;28.92;95107.97;10573136;28;20020;-75
2021/04/12 09:45:41;;;;;;;25.88;7.40;;;;;;;23.53;27.85;95094.88;10575412;28;20031;-75
2021/04/12 09:51:11;;;;;;;17.98;6.20;;;;;;;26.42;25.74;95080.44;10566953;28;20063;-75
2021/04/12 09:56:33;;;;;;;19.50;5.90;;;;;;;29.13;23.65;95061.69;10557328;28;20506;-76
2021/04/12 10:01:45;;;;;;;17.17;5.97;;;;;;;30.32;22.10;95053.94;10591284;27;20034;-74
2021/04/12 10:07:03;;;;;;;15.38;5.50;;;;;;;32.41;20.43;95055.53;10575086;28;20367;-74
2021/04/12 10:12:25;;;;;;;12.50;5.00;;;;;;;30.60;21.96;95053.22;10574646;28;20479;-74
2021/04/12 10:17:38;;;;;;;14.45;4.68;;;;;;;32.35;21.01;95032.91;10574014;28;20140;-76
2021/04/12 10:22:42;;;;;;;14.13;5.28;;;;;;;33.36;18.71;95030.09;10573937;28;20032;-76
2021/04/12 10:27:53;;;;;;;10.85;5.35;;;;;;;33.19;20.45;95025.47;10573212;28;20034;-76
2021/04/12 10:33:00;;;;;;;17.35;5.15;;;;;;;33.44;18.82;95021.66;10589091;27;20085;-76
2021/04/12 10:38:13;;;;;;;16.77;6.00;;;;;;;32.56;20.91;95020.84;10573624;28;20074;-76
2021/04/12 10:43:26;;;;;;;14.60;5.70;;;;;;;32.87;19.92;95007.88;10572934;28;20027;-76
2021/04/12 10:48:32;;;;;;;15.40;5.10;;;;;;;33.96;19.38;95007.50;10572506;28;20028;-76
2021/04/12 10:54:11;;;;;;;12.20;5.20;;;;;;;30.20;21.49;95010.75;10572447;28;20047;-76
2021/04/12 10:59:37;;;;;;;13.68;5.20;;;;;;;30.58;23.06;95005.66;10572837;28;20072;-76
2021/04/12 11:04:43;;;;;;;14.90;6.13;;;;;;;29.48;22.31;94988.34;10572395;28;20024;-76
2021/04/12 11:10:00;;;;;;;14.85;6.35;;;;;;;28.85;23.87;94982.06;10571909;28;20516;-76
2021/04/12 11:15:25;;;;;;;16.48;6.72;;;;;;;27.97;23.18;94971.44;10553900;28;20108;-75
2021/04/12 11:20:42;;;;;;;16.50;6.50;;;;;;;27.32;24.60;94975.44;10571773;28;20031;-75
2021/04/12 11:25:51;;;;;;;16.95;6.80;;;;;;;25.55;26.94;94972.59;10586937;27;20024;-75
2021/04/12 11:30:51;;;;;;;15.95;6.28;;;;;;;23.56;28.23;94964.44;10571911;28;20028;-75
2021/04/12 11:36:13;;;;;;;24.47;6.37;;;;;;;23.49;31.14;94959.56;10571040;28;20027;-75
2021/04/12 11:41:27;;;;;;;23.85;5.90;;;;;;;23.37;31.45;94952.19;10571087;28;20023;-75
2021/04/12 11:46:42;;;;;;;26.45;7.68;;;;;;;22.88;31.82;94955.06;10571108;28;20407;-75
2021/04/12 11:51:51;;;;;;;13.85;5.78;;;;;;;22.69;32.52;94942.78;10570281;28;20064;-75
2021/04/12 11:57:20;;;;;;;21.60;5.50;;;;;;;22.39;31.14;94933.25;10554053;28;20041;-75
2021/04/12 12:02:41;;;;;;;19.15;5.57;;;;;;;21.70;33.99;94933.78;10528048;28;20042;-75
2021/04/12 12:07:48;;;;;;;10.52;3.80;;;;;;;21.93;32.28;94925.94;10527636;28;20036;-75
2021/04/12 12:13:19;;;;;;;16.30;4.00;;;;;;;21.99;32.42;94929.22;10529253;28;20491;-74
2021/04/12 12:18:26;;;;;;;12.15;4.55;;;;;;;21.76;32.60;94917.94;10530772;28;20047;-74
2021/04/12 12:23:36;;;;;;;9.27;3.00;;;;;;;22.00;33.86;94915.22;10559360;28;20031;-74
2021/04/12 12:28:52;;;;;;;10.15;2.88;;;;;;;21.83;32.19;94910.75;10572563;28;20027;-75
2021/04/12 12:33:59;;;;;;;8.52;3.80;;;;;;;21.92;32.05;94897.00;10572407;28;20027;-75
2021/04/12 12:39:08;;;;;;;9.90;3.70;;;;;;;21.96;32.39;94892.44;10587612;27;20383;-75
2021/04/12 12:44:11;;;;;;;12.05;3.55;;;;;;;22.25;34.31;94879.63;10571859;28;20063;-75
2021/04/12 12:49:17;;;;;;;10.65;3.33;;;;;;;22.27;31.98;94874.59;10587356;27;20024;-75
2021/04/12 12:54:41;;;;;;;13.32;3.05;;;;;;;22.46;30.93;94860.31;10570990;28;20051;-75
2021/04/12 12:59:47;;;;;;;10.13;3.53;;;;;;;22.79;32.34;94858.53;10586726;27;20463;-75
2021/04/12 13:05:02;;;;;;;8.60;2.80;;;;;;;21.97;31.76;94855.69;10584978;28;20019;-75
2021/04/12 13:10:17;;;;;;;15.30;3.83;;;;;;;22.31;33.41;94844.59;10570829;28;20063;-75
2021/04/12 13:15:20;;;;;;;9.32;2.72;;;;;;;22.25;30.57;94849.50;10582860;27;20479;-76
2021/04/12 13:20:41;;;;;;;15.75;3.10;;;;;;;22.04;31.91;94835.19;10567006;28;20032;-76
2021/04/12 13:25:44;;;;;;;7.85;2.60;;;;;;;22.53;31.85;94830.41;10566411;28;20024;-76
2021/04/12 13:30:59;;;;;;;8.30;3.50;;;;;;;22.37;30.36;94818.59;10567308;28;20023;-76
2021/04/12 13:36:15;;;;;;;10.75;2.72;;;;;;;21.94;30.65;94812.59;10566746;28;20071;-75
2021/04/12 13:41:31;;;;;;;5.72;2.95;;;;;;;21.47;30.94;94813.81;10566632;28;20124;-75
2021/04/12 13:46:56;;;;;;;10.05;3.10;;;;;;;21.33;31.79;94814.16;10566870;28;20031;-75
2021/04/12 13:52:06;;;;;;;12.95;2.95;;;;;;;21.03;31.63;94804.53;10565632;28;20055;-76
2021/04/12 13:57:14;;;;;;;8.82;3.05;;;;;;;20.90;32.13;94807.22;10566549;28;20036;-75
2021/04/12 14:02:29;;;;;;;14.32;3.17;;;;;;;21.01;31.33;94793.94;10566268;28;20038;-76
2021/04/12 14:07:46;;;;;;;5.50;2.58;;;;;;;20.66;32.06;94789.59;10566050;28;20055;-76
2021/04/12 14:12:54;;;;;;;11.38;3.33;;;;;;;20.66;33.90;94786.88;10581462;28;20034;-75
2021/04/12 14:18:05;;;;;;;8.15;2.63;;;;;;;20.85;35.16;94787.53;10565582;28;20035;-78
2021/04/12 14:23:18;;;;;;;11.38;2.92;;;;;;;20.86;33.61;94775.47;10565876;28;20027;-78
2021/04/12 14:28:23;;;;;;;12.20;3.53;;;;;;;20.88;32.71;94776.75;10554313;28;20031;-78
2021/04/12 14:33:31;;;;;;;13.73;3.72;;;;;;;20.91;32.39;94767.06;10537353;28;20131;-77
2021/04/12 14:38:32;;;;;;;;;;;;;;;20.76;32.02;94766.59;10564284;28;20027;-78
2021/04/12 14:43:37;;;;;;;10.93;3.03;;;;;;;20.73;32.16;94766.47;10554581;28;20294;-77
2021/04/12 14:48:59;;;;;;;12.75;3.13;;;;;;;20.80;31.90;94766.69;10572626;28;20475;-77
2021/04/12 14:54:05;;;;;;;11.57;4.18;;;;;;;20.73;32.68;94761.78;10572378;28;20044;-77
2021/04/12 14:59:07;;;;;;;13.27;3.42;;;;;;;20.48;32.99;94771.81;10572135;28;20079;-77
2021/04/12 15:04:15;;;;;;;11.93;2.97;;;;;;;20.42;33.09;94778.63;10571689;28;20083;-77
2021/04/12 15:09:33;;;;;;;11.63;3.20;;;;;;;20.25;33.22;94774.91;10571709;28;20051;-77
2021/04/12 15:14:39;;;;;;;15.10;3.42;;;;;;;20.17;33.58;94781.22;10571254;28;20031;-77
2021/04/12 15:19:47;;;;;;;12.57;3.72;;;;;;;20.09;33.35;94771.16;10571137;28;20563;-77
2021/04/12 15:24:49;;;;;;;;;;;;;;;19.97;33.61;94775.44;10572417;28;20209;-77
2021/04/12 15:29:58;;;;;;;14.38;3.70;;;;;;;19.84;33.97;94765.56;10570844;28;19908;-77
2021/04/12 15:35:03;;;;;;;7.47;3.17;;;;;;;19.68;33.81;94773.50;10570165;28;20028;-77
2021/04/12 15:40:09;;;;;;;14.27;3.22;;;;;;;19.66;34.19;94762.16;10570587;28;20827;-77
2021/04/12 15:45:25;;;;;;;8.85;2.67;;;;;;;19.53;33.93;94758.50;10570526;28;20092;-76
2021/04/12 15:50:35;;;;;;;7.30;3.10;;;;;;;19.54;33.84;94754.66;10570988;28;20044;-77
2021/04/12 15:55:42;;;;;;;24.15;3.00;;;;;;;19.49;33.89;94763.03;10570519;28;20023;-77
2021/04/12 16:00:44;;;;;;;17.10;3.63;;;;;;;19.44;34.16;94761.28;10570445;28;20091;-77
2021/04/12 16:05:55;;;;;;;11.80;3.25;;;;;;;19.35;33.69;94752.34;10569516;28;20023;-77
2021/04/12 16:11:31;;;;;;;13.52;3.60;;;;;;;19.21;34.84;94755.31;10569273;28;20084;-77
2021/04/12 16:16:38;;;;;;;12.00;3.30;;;;;;;19.21;35.34;94746.34;10569796;28;20031;-78
2021/04/12 16:21:38;;;;;;;10.43;3.85;;;;;;;19.08;35.52;94742.72;10585814;27;20027;-78
2021/04/12 16:27:02;;;;;;;8.13;3.67;;;;;;;19.02;36.05;94746.72;10569170;28;20471;-78
2021/04/12 16:32:09;;;;;;;8.45;3.35;;;;;;;19.02;36.29;94744.00;10569327;28;20027;-78
2021/04/12 16:37:17;;;;;;;15.43;3.63;;;;;;;18.90;36.79;94740.06;10567633;28;20182;-78
2021/04/12 16:42:37;;;;;;;14.35;4.38;;;;;;;18.76;36.98;94751.13;10536380;28;20274;-78
2021/04/12 16:47:42;;;;;;;10.48;3.70;;;;;;;18.59;37.25;94734.84;10539174;28;20019;-80
2021/04/12 16:52:52;;;;;;;14.20;4.18;;;;;;;18.41;37.73;94737.59;10557393;28;20139;-80
2021/04/12 16:58:01;;;;;;;15.85;4.63;;;;;;;18.22;38.39;94746.13;10526958;28;20043;-78
2021/04/12 17:03:07;;;;;;;7.38;4.05;;;;;;;18.19;39.14;94748.66;10554209;28;20056;-78
2021/04/12 17:08:11;;;;;;;16.08;4.30;;;;;;;17.87;39.77;94750.72;10552777;28;20120;-77
2021/04/12 17:13:38;;;;;;;12.48;4.40;;;;;;;17.81;40.22;94758.22;10525221;28;20459;-78
2021/04/12 17:18:46;;;;;;;21.83;6.03;;;;;;;17.70;40.22;94759.66;10527215;28;20039;-77
2021/04/12 17:24:12;;;;;;;16.33;6.28;;;;;;;17.63;41.21;94751.19;10527672;28;20054;-76
2021/04/12 17:29:24;;;;;;;12.85;5.80;;;;;;;17.47;40.87;94756.25;10542339;28;20088;-78
2021/04/12 17:34:49;;;;;;;20.70;7.57;;;;;;;17.39;41.42;94763.28;10551966;28;20103;-78
2021/04/12 17:39:52;;;;;;;18.38;6.07;;;;;;;17.28;41.03;94773.63;10509948;28;20048;-77
2021/04/12 17:44:55;;;;;;;23.08;6.90;;;;;;;17.20;41.56;94785.25;10552023;28;20379;-77
2021/04/12 17:50:07;;;;;;;19.10;7.05;;;;;;;17.10;42.23;94783.63;10569301;28;20382;-76
2021/04/12 17:55:26;;;;;;;23.13;7.10;;;;;;;16.96;42.74;94781.00;10569595;28;20055;-77
2021/04/12 18:00:41;;;;;;;24.58;6.80;;;;;;;16.82;42.63;94794.63;10553203;28;20024;-77
2021/04/12 18:05:51;;;;;;;17.98;6.13;;;;;;;16.51;43.37;94791.91;10566840;28;20572;-77
2021/04/12 18:10:59;;;;;;;16.27;6.93;;;;;;;16.34;43.31;94803.41;10572190;28;20402;-77
2021/04/12 18:16:46;;;;;;;20.48;6.68;;;;;;;16.28;43.06;94810.09;10570507;28;20386;-78
2021/04/12 18:21:56;;;;;;;19.83;6.57;;;;;;;16.22;43.25;94826.47;10557620;28;20035;-77
2021/04/12 18:26:59;;;;;;;21.48;5.28;;;;;;;16.19;43.50;94810.81;10570797;28;20016;-77
2021/04/12 18:32:05;;;;;;;15.15;4.97;;;;;;;16.16;43.72;94821.47;10548743;28;20115;-75
2021/04/12 18:37:14;;;;;;;12.55;4.38;;;;;;;16.08;44.79;94825.72;10567895;28;20551;-74
2021/04/12 18:42:40;;;;;;;10.52;3.70;;;;;;;15.96;45.20;94828.94;10572524;28;20031;-74
2021/04/12 18:48:28;;;;;;;18.65;4.63;;;;;;;15.96;45.52;94826.22;10530458;28;20040;-75
2021/04/12 18:53:28;;;;;;;10.05;4.18;;;;;;;15.93;45.90;94821.44;10461244;28;20568;-74
2021/04/12 18:58:47;;;;;;;10.38;3.67;;;;;;;15.87;46.43;94822.66;10572620;28;20110;-74
2021/04/12 19:04:20;;;;;;;;;;;;;;;15.78;46.90;94836.09;10548233;28;20048;-73
2021/04/12 19:09:23;;;;;;;14.23;4.65;;;;;;;15.68;47.72;94833.59;10547660;28;19911;-73
2021/04/12 19:14:36;;;;;;;14.77;4.85;;;;;;;15.61;48.20;94839.41;10546314;27;20031;-74
2021/04/12 19:19:58;;;;;;;11.70;4.55;;;;;;;15.36;49.68;94846.13;10537991;28;20124;-73
2021/04/12 19:25:17;;;;;;;19.00;5.55;;;;;;;15.25;50.67;94848.25;10571183;28;20024;-73
2021/04/12 19:30:33;;;;;;;15.13;6.55;;;;;;;14.91;52.16;94846.69;10571157;28;20448;-73
2021/04/12 19:35:45;;;;;;;13.02;5.55;;;;;;;14.74;53.52;94849.97;10571358;28;20111;-73
2021/04/12 19:41:03;;;;;;;8.98;4.88;;;;;;;14.66;53.77;94846.03;10570632;28;20066;-74
2021/04/12 19:46:10;;;;;;;15.57;5.72;;;;;;;14.60;55.03;94839.06;10570806;28;20390;-74
2021/04/12 19:51:23;;;;;;;13.60;6.28;;;;;;;14.57;57.05;94844.25;10551555;28;20044;-74
2021/04/12 19:56:36;;;;;;;18.15;6.45;;;;;;;14.35;58.10;94843.00;10569525;28;20115;-74
2021/04/12 20:01:41;;;;;;;11.40;5.85;;;;;;;14.16;59.13;94849.22;10584264;27;20765;-75
2021/04/12 20:06:57;;;;;;;10.32;5.80;;;;;;;14.08;58.46;94858.00;10569806;28;20019;-75
2021/04/12 20:12:15;;;;;;;19.50;5.72;;;;;;;13.91;57.92;94854.97;10551879;28;20555;-75
2021/04/12 20:17:25;;;;;;;9.57;5.53;;;;;;;13.84;58.68;94858.03;10531022;28;20035;-75
2021/04/12 20:22:48;;;;;;;12.73;6.30;;;;;;;13.76;59.65;94855.97;10563096;28;20030;-75
2021/04/12 20:28:08;;;;;;;15.75;6.97;;;;;;;13.70;60.82;94862.53;10566424;28;20032;-75
2021/04/12 20:33:29;;;;;;;12.90;6.05;;;;;;;13.69;61.36;94853.66;10539822;28;20032;-75
2021/04/12 20:39:02;;;;;;;10.35;5.65;;;;;;;13.73;62.20;94865.47;10529683;28;20054;-75
2021/04/12 20:44:05;;;;;;;23.40;7.85;;;;;;;13.76;62.08;94859.50;10513586;28;20115;-75
2021/04/12 20:49:20;;;;;;;19.58;6.95;;;;;;;13.72;62.92;94860.38;10530003;28;20032;-75
2021/04/12 20:54:41;;;;;;;11.75;7.20;;;;;;;13.72;63.98;94871.97;10529445;28;20040;-75
2021/04/12 20:59:44;;;;;;;13.70;7.10;;;;;;;13.59;65.54;94861.84;10529210;28;20052;-75
2021/04/12 21:04:52;;;;;;;12.85;6.75;;;;;;;13.49;65.96;94858.22;10552364;28;20016;-75
2021/04/12 21:10:09;;;;;;;12.07;7.13;;;;;;;13.40;66.12;94869.94;10571083;28;20444;-75
2021/04/12 21:15:25;;;;;;;14.55;6.45;;;;;;;13.28;68.45;94859.50;10567928;28;20474;-75
2021/04/12 21:20:26;;;;;;;17.25;6.82;;;;;;;13.13;69.03;94852.34;10567604;28;20096;-76
2021/04/12 21:25:27;;;;;;;14.55;7.97;;;;;;;13.04;68.95;94851.38;10566508;28;20077;-76
2021/04/12 21:30:35;;;;;;;12.20;6.63;;;;;;;13.11;69.49;94866.13;10549033;28;20025;-76
2021/04/12 21:35:37;;;;;;;14.30;6.90;;;;;;;12.93;71.33;94864.16;10572424;28;20028;-76
2021/04/12 21:40:40;;;;;;;12.02;6.38;;;;;;;12.87;73.42;94862.63;10576152;28;20436;-75
2021/04/12 21:46:01;;;;;;;14.77;7.07;;;;;;;12.82;73.75;94877.75;10575207;28;20027;-75
2021/04/12 21:51:20;;;;;;;13.68;6.43;;;;;;;12.74;74.89;94874.84;10566054;28;20490;-75
2021/04/12 21:56:44;;;;;;;11.93;7.50;;;;;;;12.63;75.49;94883.03;10575366;28;20452;-75
2021/04/12 22:01:56;;;;;;;12.57;6.40;;;;;;;12.32;77.67;94874.38;10574395;28;20034;-76
2021/04/12 22:07:02;;;;;;;11.10;5.20;;;;;;;12.30;74.22;94877.34;10556690;28;20046;-82
2021/04/12 22:12:20;;;;;;;11.45;6.13;;;;;;;12.21;74.60;94876.34;10582531;28;20034;-82
2021/04/12 22:17:45;;;;;;;14.80;6.07;;;;;;;12.16;73.32;94880.97;10561761;28;20031;-83
2021/04/12 22:23:03;;;;;;;13.18;5.85;;;;;;;12.03;73.30;94867.03;10579625;28;20039;-82
2021/04/12 22:28:06;;;;;;;10.73;5.53;;;;;;;11.84;71.60;94871.41;10582259;28;20027;-82
2021/04/12 22:43:50;;;;;;;8.88;5.20;;;;;;;11.85;69.82;94864.94;10578640;28;20027;-83
2021/04/12 22:48:50;;;;;;;9.48;5.20;;;;;;;11.84;69.94;94868.72;10573980;28;20028;-83
2021/04/12 22:54:18;;;;;;;7.45;4.82;;;;;;;11.83;68.93;94869.78;10560502;28;20052;-83
2021/04/12 22:59:21;;;;;;;6.78;4.45;;;;;;;11.70;68.45;94855.84;10548240;28;20695;-83
2021/04/12 23:04:42;;;;;;;9.30;4.30;;;;;;;11.77;67.65;94859.03;10564860;28;20058;-83
2021/04/12 23:09:58;;;;;;;8.90;5.40;;;;;;;11.72;67.02;94864.47;10591862;28;20035;-81
2021/04/12 23:15:11;;;;;;;7.70;3.90;;;;;;;11.72;66.11;94848.31;10562766;28;20024;-81
2021/04/12 23:20:12;;;;;;;9.60;4.70;;;;;;;11.78;65.67;94849.88;10580476;28;20035;-82
2021/04/12 23:25:20;;;;;;;11.15;4.82;;;;;;;11.83;65.52;94853.63;10580968;28;20024;-82
2021/04/12 23:30:35;;;;;;;19.33;4.38;;;;;;;11.86;66.17;94853.91;10580685;28;20031;-82
2021/04/12 23:35:36;;;;;;;8.05;4.72;;;;;;;11.82;65.35;94839.38;10581213;28;20023;-83
2021/04/12 23:40:38;;;;;;;7.05;4.88;;;;;;;11.78;64.03;94836.44;10581585;28;20390;-82
2021/04/12 23:45:39;;;;;;;7.10;4.30;;;;;;;11.82;64.01;94833.16;10579814;28;20035;-81
2021/04/12 23:50:45;;;;;;;7.38;4.80;;;;;;;11.93;66.11;94834.72;10571605;28;20055;-82
2021/04/12 23:55:52;;;;;;;6.95;4.50;;;;;;;12.05;65.71;94839.81;10536992;28;20028;-82
